createdAt,value
2023-04-20T00:04:54.810Z,24.20
2023-04-20T00:09:55.931Z,26.10
2023-04-20T00:14:56.969Z,25.80
2023-04-20T00:19:58.198Z,25.40
2023-04-20T00:24:59.188Z,27.30
2023-04-20T00:30:00.211Z,22.70
2023-04-20T00:35:01.258Z,25.20
2023-04-20T00:40:03.375Z,20.50
2023-04-20T00:45:05.486Z,21.60
2023-04-20T00:50:07.366Z,26.40
2023-04-20T00:55:09.002Z,27.50
2023-04-20T01:00:10.698Z,32.90
2023-04-20T01:05:11.961Z,38.30
2023-04-20T01:10:13.015Z,36.10
2023-04-20T01:15:14.058Z,19.40
2023-04-20T01:20:15.484Z,35.00
2023-04-20T01:25:17.628Z,35.30
2023-04-20T01:30:18.733Z,38.20
2023-04-20T01:35:19.848Z,31.60
2023-04-20T01:40:21.006Z,36.50
2023-04-20T01:45:22.009Z,39.50
2023-04-20T01:50:22.969Z,36.50
2023-04-20T01:55:26.088Z,28.70
2023-04-20T02:00:27.197Z,32.70
2023-04-20T02:05:28.170Z,33.80
2023-04-20T02:10:30.551Z,30.80
2023-04-20T02:15:31.664Z,31.20
2023-04-20T02:20:32.780Z,28.70
2023-04-20T02:25:33.879Z,31.90
2023-04-20T02:30:35.173Z,28.10
2023-04-20T02:35:36.224Z,22.30
2023-04-20T02:40:37.258Z,37.90
2023-04-20T02:45:38.614Z,35.50
2023-04-20T02:50:41.781Z,36.30
2023-04-20T02:56:05.718Z,33.60
2023-04-20T03:01:15.910Z,36.90
2023-04-20T03:06:17.244Z,38.00
2023-04-20T03:11:23.005Z,27.40
2023-04-20T03:16:24.857Z,49.00
2023-04-20T03:21:28.729Z,44.80
2023-04-20T03:26:30.255Z,44.10
2023-04-20T03:31:43.153Z,42.10
2023-04-20T03:36:45.053Z,36.40
2023-04-20T03:41:46.166Z,42.30
2023-04-20T03:46:47.172Z,41.20
2023-04-20T03:51:48.167Z,40.50
2023-04-20T03:56:49.788Z,44.70
2023-04-20T04:01:51.981Z,52.80
2023-04-20T04:06:53.815Z,49.90
2023-04-20T04:11:55.069Z,49.20
2023-04-20T04:16:56.549Z,49.10
2023-04-20T04:21:57.875Z,56.40
2023-04-20T04:26:58.977Z,46.80
2023-04-20T04:32:03.480Z,37.60
2023-04-20T04:37:04.638Z,33.00
2023-04-20T04:42:15.363Z,31.40
2023-04-20T04:47:19.312Z,32.50
2023-04-20T04:52:21.034Z,25.40
2023-04-20T04:57:22.042Z,30.20
2023-04-20T05:02:23.155Z,29.80
2023-04-20T05:07:24.266Z,26.80
2023-04-20T05:12:25.394Z,27.20
2023-04-20T05:17:26.391Z,21.40
2023-04-20T05:22:27.355Z,23.50
2023-04-20T05:27:28.331Z,22.80
2023-04-20T05:32:29.440Z,25.40
2023-04-20T05:37:31.513Z,22.30
2023-04-20T05:42:32.553Z,22.20
2023-04-20T05:47:33.638Z,19.00
2023-04-20T05:52:34.725Z,20.70
2023-04-20T05:57:41.870Z,21.20
2023-04-20T06:02:43.570Z,20.00
2023-04-20T06:07:44.926Z,30.60
2023-04-20T06:12:46.892Z,18.00
2023-04-20T06:17:48.141Z,23.10
2023-04-20T06:22:49.471Z,19.90
2023-04-20T06:27:52.451Z,20.20
2023-04-20T06:32:53.921Z,15.10
2023-04-20T06:37:58.540Z,16.90
2023-04-20T06:43:01.301Z,21.80
2023-04-20T06:48:03.001Z,19.30
2023-04-20T06:53:04.678Z,19.30
2023-04-20T06:58:05.655Z,20.10
2023-04-20T07:03:07.128Z,22.70
2023-04-20T07:08:08.775Z,17.10
2023-04-20T07:13:09.862Z,23.90
2023-04-20T07:18:11.003Z,18.90
2023-04-20T07:23:12.080Z,18.40
2023-04-20T07:28:13.378Z,15.60
2023-04-20T07:33:14.697Z,17.40
2023-04-20T07:38:15.756Z,18.60
2023-04-20T07:43:16.768Z,16.10
2023-04-20T07:48:17.735Z,19.80
2023-04-20T07:53:34.786Z,20.00
2023-04-20T07:58:37.843Z,20.40
2023-04-20T08:03:39.172Z,18.90
2023-04-20T08:08:40.534Z,18.30
2023-04-20T08:13:41.493Z,16.50
2023-04-20T08:18:42.578Z,17.00
2023-04-20T08:23:43.925Z,18.00
2023-04-20T08:28:44.971Z,18.50
2023-04-20T08:33:46.547Z,16.80
2023-04-20T08:39:12.774Z,16.50
2023-04-20T08:44:13.908Z,19.10
2023-04-20T08:49:16.900Z,16.00
2023-04-20T08:54:18.126Z,10.70
2023-04-20T08:59:19.224Z,19.50
2023-04-20T09:04:23.837Z,11.50
2023-04-20T09:09:26.383Z,13.80
2023-04-20T09:14:27.764Z,22.40
2023-04-20T09:19:29.803Z,16.90
2023-04-20T09:24:33.102Z,10.00
2023-04-20T09:34:44.498Z,8.50
2023-04-20T09:39:46.055Z,10.70
2023-04-20T09:44:48.115Z,9.00
2023-04-20T09:49:49.577Z,10.30
2023-04-20T09:54:50.910Z,8.70
2023-04-20T09:59:53.833Z,8.80
2023-04-20T10:04:56.484Z,9.20
2023-04-20T10:10:04.955Z,6.60
2023-04-20T10:15:06.631Z,7.50
2023-04-20T10:20:25.294Z,9.30
2023-04-20T10:25:27.279Z,6.80
2023-04-20T10:30:28.706Z,7.90
2023-04-20T10:35:50.464Z,7.30
2023-04-20T10:40:51.417Z,7.70
2023-04-20T10:45:52.778Z,7.70
2023-04-20T10:50:53.903Z,8.40
2023-04-20T10:56:01.205Z,7.70
2023-04-20T11:01:05.469Z,7.70
2023-04-20T11:06:06.862Z,6.30
2023-04-20T11:11:24.220Z,7.70
2023-04-20T11:16:36.361Z,8.60
2023-04-20T11:21:45.996Z,6.30
2023-04-20T11:26:53.602Z,7.50
2023-04-20T11:31:55.309Z,7.00
2023-04-20T11:36:56.790Z,8.50
2023-04-20T11:41:57.884Z,7.70
2023-04-20T11:46:59.084Z,6.60
2023-04-20T11:52:00.543Z,6.80
2023-04-20T11:57:01.927Z,6.80
2023-04-20T12:02:03.279Z,7.80
2023-04-20T12:07:04.280Z,6.40
2023-04-20T12:12:05.703Z,7.40
2023-04-20T12:17:06.815Z,6.70
2023-04-20T12:22:07.860Z,7.20
2023-04-20T12:27:08.835Z,5.90
2023-04-20T12:32:10.306Z,7.30
2023-04-20T12:37:11.510Z,5.80
2023-04-20T12:42:12.513Z,6.20
2023-04-20T12:47:13.695Z,8.10
2023-04-20T12:52:14.947Z,7.10
2023-04-20T12:57:16.335Z,6.90
2023-04-20T13:02:17.931Z,6.30
2023-04-20T13:07:19.052Z,8.80
2023-04-20T13:12:20.226Z,7.20
2023-04-20T13:17:21.373Z,6.80
2023-04-20T13:22:22.359Z,7.00
2023-04-20T13:27:23.581Z,5.40
2023-04-20T13:32:25.690Z,5.10
2023-04-20T13:37:26.830Z,5.80
2023-04-20T13:42:28.216Z,5.20
2023-04-20T13:47:29.887Z,5.00
2023-04-20T13:52:31.061Z,4.80
2023-04-20T13:57:32.316Z,6.60
2023-04-20T14:02:33.651Z,4.60
2023-04-20T14:07:35.166Z,5.30
2023-04-20T14:12:36.332Z,4.70
2023-04-20T14:17:37.373Z,4.00
2023-04-20T14:22:38.495Z,2.50
2023-04-20T14:27:39.781Z,3.00
2023-04-20T14:32:40.992Z,4.10
2023-04-20T14:37:42.120Z,3.90
2023-04-20T14:42:43.083Z,5.00
2023-04-20T14:47:44.190Z,4.30
2023-04-20T14:52:45.447Z,3.90
2023-04-20T14:57:46.576Z,4.10
2023-04-20T15:02:47.756Z,4.00
2023-04-20T15:07:50.182Z,3.00
2023-04-20T15:12:51.358Z,3.60
2023-04-20T15:17:53.206Z,3.60
2023-04-20T15:22:54.319Z,2.90
2023-04-20T15:27:55.402Z,3.00
2023-04-20T15:32:56.527Z,4.50
2023-04-20T15:38:06.195Z,3.50
2023-04-20T15:43:07.233Z,2.80
2023-04-20T15:48:08.546Z,3.90
2023-04-20T15:53:09.698Z,2.70
2023-04-20T15:58:11.346Z,2.70
2023-04-20T16:03:12.605Z,2.70
2023-04-20T16:08:13.774Z,3.10
2023-04-20T16:13:14.857Z,3.20
2023-04-20T16:18:15.862Z,2.80
2023-04-20T16:23:16.836Z,3.00
2023-04-20T16:28:17.834Z,3.10
2023-04-20T16:33:18.820Z,4.00
2023-04-20T16:38:20.034Z,2.80
2023-04-20T16:43:21.058Z,2.70
2023-04-20T16:48:22.698Z,2.70
2023-04-20T16:53:23.861Z,2.90
2023-04-20T16:58:25.021Z,3.30
2023-04-20T17:03:26.355Z,3.60
2023-04-20T17:08:27.618Z,4.70
2023-04-20T17:13:29.536Z,4.80
2023-04-20T17:18:33.566Z,3.30
2023-04-20T17:23:35.128Z,3.70
2023-04-20T17:28:36.436Z,4.00
2023-04-20T17:33:38.197Z,3.50
2023-04-20T17:38:39.243Z,4.00
2023-04-20T17:43:40.708Z,4.50
2023-04-20T17:48:41.652Z,4.30
2023-04-20T17:53:42.681Z,5.70
2023-04-20T17:58:43.802Z,5.40
2023-04-20T18:03:45.055Z,5.60
2023-04-20T18:08:46.327Z,6.10
2023-04-20T18:13:47.517Z,6.20
2023-04-20T18:18:51.032Z,5.40
2023-04-20T18:23:52.402Z,5.90
2023-04-20T18:28:53.551Z,4.80
2023-04-20T18:33:54.917Z,5.50
2023-04-20T18:38:56.756Z,8.90
2023-04-20T18:43:57.871Z,8.20
2023-04-20T18:48:58.926Z,8.20
2023-04-20T18:53:59.914Z,14.70
2023-04-20T18:59:01.124Z,13.30
2023-04-20T19:04:02.543Z,15.40
2023-04-20T19:09:04.491Z,15.90
2023-04-20T19:14:06.917Z,22.10
2023-04-20T19:19:09.068Z,19.70
2023-04-20T19:24:10.254Z,16.50
2023-04-20T19:29:11.960Z,12.30
2023-04-20T19:34:13.942Z,12.60
2023-04-20T19:39:15.111Z,16.30
2023-04-20T19:44:19.080Z,15.20
2023-04-20T19:49:20.525Z,14.30
2023-04-20T19:54:22.391Z,17.70
2023-04-20T19:59:23.385Z,20.80
2023-04-20T20:04:24.527Z,20.60
2023-04-20T20:09:25.885Z,27.50
2023-04-20T20:14:27.259Z,27.00
2023-04-20T20:19:29.371Z,24.00
2023-04-20T20:24:30.356Z,20.10
2023-04-20T20:29:31.469Z,20.00
2023-04-20T20:34:32.494Z,19.90
2023-04-20T20:39:33.448Z,15.70
2023-04-20T20:44:38.207Z,16.80
2023-04-20T20:49:39.146Z,19.60
2023-04-20T20:54:41.749Z,19.60
2023-04-20T20:59:42.758Z,19.10
2023-04-20T21:04:43.716Z,20.80
2023-04-20T21:09:45.790Z,22.70
2023-04-20T21:14:53.196Z,17.90
2023-04-20T21:19:54.255Z,16.30
2023-04-20T21:24:55.244Z,24.10
2023-04-20T21:29:56.398Z,21.70
2023-04-20T21:35:01.077Z,38.30
2023-04-20T21:40:03.121Z,32.00
2023-04-20T21:45:07.923Z,23.90
2023-04-20T21:50:15.681Z,18.90
2023-04-20T21:55:18.276Z,17.10
2023-04-20T22:00:19.556Z,15.80
2023-04-20T22:05:21.210Z,18.40
2023-04-20T22:10:22.732Z,17.50
2023-04-20T22:15:25.417Z,23.00
2023-04-20T22:20:26.516Z,22.30
2023-04-20T22:25:27.610Z,22.20
2023-04-20T22:30:28.767Z,22.50
2023-04-20T22:35:30.236Z,24.80
2023-04-20T22:40:31.709Z,26.10
2023-04-20T22:45:32.701Z,54.30
2023-04-20T22:50:34.523Z,39.20
2023-04-20T22:55:35.609Z,34.10
2023-04-20T23:00:36.722Z,38.50
2023-04-20T23:05:38.422Z,34.60
2023-04-20T23:10:47.304Z,40.00
2023-04-20T23:15:53.349Z,46.90
2023-04-20T23:20:56.265Z,37.70
2023-04-20T23:25:57.236Z,30.70
2023-04-20T23:30:58.950Z,46.00
2023-04-20T23:36:00.378Z,38.30
2023-04-20T23:41:10.144Z,34.50
2023-04-20T23:46:13.767Z,48.40
2023-04-20T23:51:17.628Z,44.40
2023-04-20T23:56:19.300Z,28.20
